Huntington, WV (25704)

9:42 PM EDT on August 03, 2015 (GMT -0400)
Westmoreland | | Change Station
CLOSE
Current Station
Personal Weather Station
Location: Huntington, WV
Elevation: 548 ft
Nearby Weather Stations

Elev 548 ft 38.40 °N, 82.52 °W | Updated 7 seconds ago

Overcast
Overcast
80.7 °F
Feels Like 85 °F
N
0.0
Wind Variable Wind from SW
Gusts 2.0 mph

Today
High -- | Low -- °F
--% Chance of Precip.
Yesterday
High -- | Low -- °F
Precip. -- in
6:33 AM 8:38 PM
Waning Gibbous, 82% visible
Pressure 29.86 in
Visibility 8.0 miles
Clouds Scattered Clouds 4500 ft
Scattered Clouds 6500 ft
Mostly Cloudy 9000 ft
Heat Index 85 °F
Dew Point 73 °F
Humidity 78%
Rainfall 0.00 in
Snow Depth Not available.
UV 0.0 out of 12
Pollen 5.40 out of 12
Air Quality Not available.
Flu Activity Not available.
SPECI KHTS 040120Z 00000KT 8SM TSRA SCT045 SCT065 BKN090 25/22 A2986 RMK AO2 RAB07 TSB14 P0001 T02500222

More Conditions Fewer Conditions

Pressure 29.86 in
Visibility 8.0 miles
Clouds Scattered Clouds 4500 ft
Scattered Clouds 6500 ft
Mostly Cloudy 9000 ft
Heat Index 85 °F
Dew Point 73 °F
Humidity 78%
Rainfall 0.00 in
Snow Depth Not available.
UV 0.0 out of 12
Pollen 5.40 out of 12
Air Quality Not available.
Flu Activity Not available.
SPECI KHTS 040120Z 00000KT 8SM TSRA SCT045 SCT065 BKN090 25/22 A2986 RMK AO2 RAB07 TSB14 P0001 T02500222

More Conditions Fewer Conditions

10-Day Weather Forecast

×

Almanac

Astronomy

Aug. 03, 2015 Rise Set
Actual Time
Civil Twilight
Nautical Twilight
Astronomical Twilight
Moon
Length of Visible Light
Length of Day
Tomorrow will be .
, % of the Moon is Illuminated

Today's Extremes

State Highs State Lows

Community

WunderPhotos

Upload Photos

1,843,820 photos uploaded!

WunderBlogs® & News

Nearby

Air Quality

  Air Quality AQ Index Pollutant
Not available.

Snow Depth

Station Depth Elevation

Earthquake Activity

City Distance Mag. Time & Date
Minimum magnitude displayed is 2.5.

Coastal Water Temperatures

Place Temperature

Stations

Nearby Weather Stations

Station Location Temp. Windchill Dew Point Humidity Wind Precip. Elev Updated Type